createdAt,value
2023-05-05T00:00:08.912Z,24.42
2023-05-05T00:02:36.203Z,24.42
2023-05-05T00:05:03.367Z,24.41
2023-05-05T00:07:29.982Z,24.42
2023-05-05T00:09:56.493Z,24.41
2023-05-05T00:12:23.059Z,24.42
2023-05-05T00:14:49.562Z,24.42
2023-05-05T00:17:16.181Z,24.42
2023-05-05T00:19:42.909Z,24.41
2023-05-05T00:22:09.600Z,24.42
2023-05-05T00:24:36.074Z,24.41
2023-05-05T00:27:03.491Z,24.42
2023-05-05T00:29:30.497Z,24.40
2023-05-05T00:31:57.269Z,24.42
2023-05-05T00:34:23.787Z,24.40
2023-05-05T00:36:50.319Z,24.41
2023-05-05T00:39:16.771Z,24.41
2023-05-05T00:41:43.302Z,24.41
2023-05-05T00:44:09.839Z,24.40
2023-05-05T00:46:37.264Z,24.39
2023-05-05T00:49:04.056Z,24.40
2023-05-05T00:51:32.000Z,24.40
2023-05-05T00:53:58.546Z,24.40
2023-05-05T00:56:27.347Z,24.40
2023-05-05T00:58:54.199Z,24.40
2023-05-05T01:01:20.762Z,24.39
2023-05-05T01:03:47.404Z,24.39
2023-05-05T01:06:32.764Z,24.41
2023-05-05T01:09:08.900Z,24.39
2023-05-05T01:11:55.361Z,24.39
2023-05-05T01:14:36.778Z,24.39
2023-05-05T01:17:21.893Z,24.38
2023-05-05T01:20:07.974Z,24.37
2023-05-05T01:22:40.071Z,24.37
2023-05-05T01:25:31.029Z,24.36
2023-05-05T01:28:18.893Z,24.36
2023-05-05T01:31:09.416Z,24.36
2023-05-05T01:33:51.907Z,24.35
2023-05-05T01:36:26.070Z,24.35
2023-05-05T01:38:58.003Z,24.35
2023-05-05T01:41:41.147Z,24.35
2023-05-05T01:44:10.549Z,24.36
2023-05-05T01:46:37.409Z,24.36
2023-05-05T01:49:05.088Z,24.36
2023-05-05T01:51:32.250Z,24.36
2023-05-05T01:54:05.606Z,24.36
2023-05-05T01:56:33.154Z,24.36
2023-05-05T01:59:01.632Z,24.37
2023-05-05T02:01:30.336Z,24.36
2023-05-05T02:03:58.787Z,24.37
2023-05-05T02:06:28.176Z,24.36
2023-05-05T02:08:58.326Z,24.36
2023-05-05T02:11:26.375Z,24.36
2023-05-05T02:13:54.560Z,24.35
2023-05-05T02:16:22.540Z,24.35
2023-05-05T02:18:50.264Z,24.36
2023-05-05T02:21:18.096Z,24.36
2023-05-05T02:23:47.269Z,24.36
2023-05-05T02:26:16.709Z,24.36
2023-05-05T02:29:10.741Z,24.36
2023-05-05T02:31:44.327Z,24.34
2023-05-05T02:34:16.416Z,24.34
2023-05-05T02:36:44.762Z,24.34
2023-05-05T02:39:17.610Z,24.34
2023-05-05T02:41:47.219Z,24.35
2023-05-05T02:44:24.580Z,24.35
2023-05-05T02:46:51.659Z,24.35
2023-05-05T02:49:18.292Z,24.35
2023-05-05T02:51:45.081Z,24.33
2023-05-05T02:54:20.623Z,24.34
2023-05-05T02:56:49.970Z,24.35
2023-05-05T02:59:48.601Z,24.35
2023-05-05T03:02:43.268Z,24.33
2023-05-05T03:05:19.600Z,24.32
2023-05-05T03:07:55.836Z,24.31
2023-05-05T03:10:31.174Z,24.31
2023-05-05T03:13:02.679Z,24.31
2023-05-05T03:15:40.959Z,24.31
2023-05-05T03:18:10.612Z,24.31
2023-05-05T03:20:40.664Z,24.31
2023-05-05T03:23:10.266Z,24.31
2023-05-05T03:25:48.657Z,24.32
2023-05-05T03:28:27.463Z,24.31
2023-05-05T03:30:56.368Z,24.31
2023-05-05T03:33:22.992Z,24.30
2023-05-05T03:35:49.817Z,24.30
2023-05-05T03:38:17.799Z,24.32
2023-05-05T03:40:45.800Z,24.31
2023-05-05T03:43:16.884Z,24.31
2023-05-05T03:45:43.499Z,24.31
2023-05-05T03:48:10.771Z,24.31
2023-05-05T03:50:39.355Z,24.30
2023-05-05T03:53:06.001Z,24.30
2023-05-05T03:55:32.880Z,24.31
2023-05-05T03:57:59.394Z,24.30
2023-05-05T04:00:26.262Z,24.30
2023-05-05T04:02:52.853Z,24.30
2023-05-05T04:05:20.158Z,24.30
2023-05-05T04:07:46.971Z,24.30
2023-05-05T04:10:14.823Z,24.29
2023-05-05T04:12:41.595Z,24.30
2023-05-05T04:15:08.903Z,24.29
2023-05-05T04:17:36.062Z,24.30
2023-05-05T04:20:03.234Z,24.30
2023-05-05T04:22:32.380Z,24.29
2023-05-05T04:24:59.522Z,24.29
2023-05-05T04:27:28.852Z,24.29
2023-05-05T04:29:57.105Z,24.29
2023-05-05T04:32:24.465Z,24.29
2023-05-05T04:34:51.674Z,24.29
2023-05-05T04:37:18.849Z,24.29
2023-05-05T04:39:46.527Z,24.29
2023-05-05T04:42:13.700Z,24.29
2023-05-05T04:44:40.307Z,24.29
2023-05-05T04:47:07.709Z,24.30
2023-05-05T04:49:34.701Z,24.28
2023-05-05T04:52:01.562Z,24.29
2023-05-05T04:54:28.020Z,24.29
2023-05-05T04:56:55.647Z,24.29
2023-05-05T04:59:22.208Z,24.29
2023-05-05T05:01:48.905Z,24.28
2023-05-05T05:04:18.497Z,24.29
2023-05-05T05:06:46.055Z,24.29
2023-05-05T05:09:13.134Z,24.29
2023-05-05T05:11:39.751Z,24.29
2023-05-05T05:14:06.871Z,24.29
2023-05-05T05:16:33.615Z,24.29
2023-05-05T05:19:01.635Z,24.28
2023-05-05T05:21:29.925Z,24.28
2023-05-05T05:23:56.464Z,24.28
2023-05-05T05:26:24.158Z,24.28
2023-05-05T05:28:51.149Z,24.28
2023-05-05T05:31:18.480Z,24.28
2023-05-05T05:33:45.360Z,24.28
2023-05-05T05:36:13.748Z,24.27
2023-05-05T05:38:40.310Z,24.27
2023-05-05T05:41:07.705Z,24.28
2023-05-05T05:43:36.837Z,24.27
2023-05-05T05:46:05.356Z,24.27
2023-05-05T05:48:33.413Z,24.28
2023-05-05T05:51:00.091Z,24.28
2023-05-05T05:53:26.654Z,24.28
2023-05-05T05:55:54.437Z,24.28
2023-05-05T05:58:21.266Z,24.28
2023-05-05T06:00:48.931Z,24.28
2023-05-05T06:03:15.894Z,24.28
2023-05-05T06:05:42.699Z,24.29
2023-05-05T06:08:09.982Z,24.29
2023-05-05T06:10:42.041Z,24.28
2023-05-05T06:13:13.131Z,24.29
2023-05-05T06:15:43.594Z,24.29
2023-05-05T06:18:12.442Z,24.29
2023-05-05T06:20:39.126Z,24.29
2023-05-05T06:23:06.174Z,24.28
2023-05-05T06:25:36.136Z,24.29
2023-05-05T06:28:02.726Z,24.30
2023-05-05T06:30:29.826Z,24.31
2023-05-05T06:32:56.366Z,24.30
2023-05-05T06:35:23.108Z,24.30
2023-05-05T06:37:49.595Z,24.30
2023-05-05T06:40:16.209Z,24.31
2023-05-05T06:42:42.724Z,24.31
2023-05-05T06:45:15.426Z,24.31
2023-05-05T06:47:42.432Z,24.31
2023-05-05T06:50:09.394Z,24.31
2023-05-05T06:52:36.215Z,24.31
2023-05-05T06:55:04.503Z,24.30
2023-05-05T06:57:31.241Z,24.31
2023-05-05T06:59:57.866Z,24.31
2023-05-05T07:02:26.653Z,24.30
2023-05-05T07:04:55.311Z,24.30
2023-05-05T07:07:22.183Z,24.29
2023-05-05T07:09:48.676Z,24.30
2023-05-05T07:12:15.320Z,24.30
2023-05-05T07:14:41.932Z,24.32
2023-05-05T07:17:08.402Z,24.31
2023-05-05T07:19:34.892Z,24.31
2023-05-05T07:22:01.344Z,24.30
2023-05-05T07:24:27.866Z,24.31
2023-05-05T07:26:54.403Z,24.32
2023-05-05T07:29:21.068Z,24.30
2023-05-05T07:31:47.585Z,24.32
2023-05-05T07:34:14.115Z,24.31
2023-05-05T07:36:40.699Z,24.32
2023-05-05T07:39:07.839Z,24.31
2023-05-05T07:41:34.328Z,24.31
2023-05-05T07:44:01.340Z,24.31
2023-05-05T07:46:27.907Z,24.30
2023-05-05T07:48:54.424Z,24.31
2023-05-05T07:51:21.531Z,24.32
2023-05-05T07:53:48.075Z,24.32
2023-05-05T07:56:14.600Z,24.32
2023-05-05T07:58:42.171Z,24.33
2023-05-05T08:01:10.988Z,24.34
2023-05-05T08:03:37.868Z,24.32
2023-05-05T08:06:12.095Z,24.34
2023-05-05T08:08:38.669Z,24.33
2023-05-05T08:11:06.614Z,24.33
2023-05-05T08:13:34.294Z,24.34
2023-05-05T08:16:00.966Z,24.34
2023-05-05T08:18:27.513Z,24.36
2023-05-05T08:20:54.744Z,24.36
2023-05-05T08:23:21.615Z,24.36
2023-05-05T08:25:48.192Z,24.37
2023-05-05T08:28:14.706Z,24.37
2023-05-05T08:30:41.404Z,24.38
2023-05-05T08:33:07.907Z,24.37
2023-05-05T08:35:34.448Z,24.39
2023-05-05T08:38:01.022Z,24.39
2023-05-05T08:40:33.058Z,24.41
2023-05-05T08:43:00.061Z,24.40
2023-05-05T08:45:28.164Z,24.42
2023-05-05T08:48:01.292Z,24.42
2023-05-05T08:50:29.144Z,24.42
2023-05-05T08:53:05.500Z,24.43
2023-05-05T08:55:35.665Z,24.43
2023-05-05T08:58:05.784Z,24.44
2023-05-05T09:00:33.815Z,24.45
2023-05-05T09:03:01.384Z,24.44
2023-05-05T09:05:28.162Z,24.46
2023-05-05T09:07:54.867Z,24.47
2023-05-05T09:10:21.621Z,24.47
2023-05-05T09:12:50.957Z,24.48
2023-05-05T09:15:17.506Z,24.49
2023-05-05T09:17:44.244Z,24.49
2023-05-05T09:20:12.753Z,24.50
2023-05-05T09:22:43.290Z,24.51
2023-05-05T09:25:17.589Z,24.51
2023-05-05T09:27:46.295Z,24.51
2023-05-05T09:30:16.791Z,24.51
2023-05-05T09:32:50.877Z,24.51
2023-05-05T09:35:19.182Z,24.51
2023-05-05T09:37:46.233Z,24.51
2023-05-05T09:40:14.289Z,24.52
2023-05-05T09:42:42.487Z,24.53
2023-05-05T09:45:17.894Z,24.53
2023-05-05T09:47:48.074Z,24.52
2023-05-05T09:50:18.173Z,24.53
2023-05-05T09:53:04.990Z,24.54
2023-05-05T09:55:31.701Z,24.52
2023-05-05T09:58:17.307Z,24.54
2023-05-05T10:00:43.945Z,24.53
2023-05-05T10:03:10.549Z,24.53
2023-05-05T10:05:51.587Z,24.53
2023-05-05T10:08:24.627Z,24.54
2023-05-05T10:10:56.950Z,24.54
2023-05-05T10:13:24.589Z,24.53
2023-05-05T10:15:53.484Z,24.53
2023-05-05T10:18:25.114Z,24.53
2023-05-05T10:21:02.171Z,24.55
2023-05-05T10:23:55.263Z,24.54
2023-05-05T10:26:23.152Z,24.53
2023-05-05T10:28:56.715Z,24.53
2023-05-05T10:31:41.743Z,24.54
2023-05-05T10:34:16.946Z,24.53
2023-05-05T10:36:45.027Z,24.54
2023-05-05T10:39:11.884Z,24.54
2023-05-05T10:41:38.852Z,24.54
2023-05-05T10:44:06.697Z,24.53
2023-05-05T10:46:33.363Z,24.54
2023-05-05T10:49:13.059Z,24.55
2023-05-05T10:51:41.215Z,24.55
2023-05-05T10:54:38.253Z,24.55
2023-05-05T10:57:09.593Z,24.55
2023-05-05T10:59:36.558Z,24.54
2023-05-05T11:02:23.581Z,24.56
2023-05-05T11:05:15.316Z,24.54
2023-05-05T11:07:43.107Z,24.53
2023-05-05T11:10:12.008Z,24.55
2023-05-05T11:12:54.037Z,24.55
2023-05-05T11:15:26.667Z,24.55
2023-05-05T11:17:54.400Z,24.54
2023-05-05T11:20:36.139Z,24.55
2023-05-05T11:23:02.554Z,24.54
2023-05-05T11:25:41.374Z,24.54
2023-05-05T11:28:30.914Z,24.54
2023-05-05T11:31:00.468Z,24.52
2023-05-05T11:33:38.153Z,24.51
2023-05-05T11:36:16.061Z,24.52
2023-05-05T11:39:19.369Z,24.51
2023-05-05T11:41:59.943Z,24.49
2023-05-05T11:44:31.814Z,24.47
2023-05-05T11:47:02.254Z,24.47
2023-05-05T11:49:37.094Z,24.48
2023-05-05T11:52:06.235Z,24.47
2023-05-05T11:54:37.554Z,24.46
2023-05-05T11:57:05.610Z,24.46
2023-05-05T11:59:32.951Z,24.46
2023-05-05T12:02:04.079Z,24.47
2023-05-05T12:04:31.619Z,24.46
2023-05-05T12:06:59.390Z,24.45
2023-05-05T12:09:27.589Z,24.45
2023-05-05T12:11:56.259Z,24.46
2023-05-05T12:14:24.559Z,24.45
2023-05-05T12:17:01.223Z,24.45
2023-05-05T12:19:33.407Z,24.45
2023-05-05T12:22:01.436Z,24.46
2023-05-05T12:24:28.366Z,24.45
2023-05-05T12:26:54.881Z,24.45
2023-05-05T12:29:25.895Z,24.47
2023-05-05T12:31:52.550Z,24.47
2023-05-05T12:34:19.396Z,24.46
2023-05-05T12:36:46.249Z,24.47
2023-05-05T12:39:13.126Z,24.46
2023-05-05T12:41:39.706Z,24.46
2023-05-05T12:44:06.664Z,24.47
2023-05-05T12:46:46.093Z,24.47
2023-05-05T12:49:12.711Z,24.46
2023-05-05T12:51:52.353Z,24.46
2023-05-05T12:54:18.791Z,24.45
2023-05-05T12:56:47.188Z,24.45
2023-05-05T12:59:22.783Z,24.46
2023-05-05T13:01:54.081Z,24.45
2023-05-05T13:04:23.137Z,24.45
2023-05-05T13:07:11.103Z,24.45
2023-05-05T13:09:38.215Z,24.44
2023-05-05T13:12:05.205Z,24.44
2023-05-05T13:14:31.898Z,24.44
2023-05-05T13:16:58.794Z,24.45
2023-05-05T13:19:25.268Z,24.44
2023-05-05T13:21:52.563Z,24.44
2023-05-05T13:24:31.185Z,24.44
2023-05-05T13:27:05.568Z,24.43
2023-05-05T13:29:33.186Z,24.43
2023-05-05T13:32:00.283Z,24.43
2023-05-05T13:34:26.948Z,24.44
2023-05-05T13:36:53.507Z,24.44
2023-05-05T13:39:20.075Z,24.43
2023-05-05T13:41:46.658Z,24.44
2023-05-05T13:44:14.000Z,24.43
2023-05-05T13:46:42.633Z,24.43
2023-05-05T13:49:09.284Z,24.44
2023-05-05T13:51:36.967Z,24.43
2023-05-05T13:54:03.960Z,24.42
2023-05-05T13:56:30.547Z,24.43
2023-05-05T13:58:57.321Z,24.42
2023-05-05T14:01:23.902Z,24.43
2023-05-05T14:03:50.653Z,24.42
2023-05-05T14:06:17.299Z,24.42
2023-05-05T14:08:44.869Z,24.42
2023-05-05T14:11:11.926Z,24.41
2023-05-05T14:13:38.468Z,24.43
2023-05-05T14:16:05.551Z,24.42
2023-05-05T14:18:32.121Z,24.42
2023-05-05T14:20:58.637Z,24.43
2023-05-05T14:23:25.206Z,24.43
2023-05-05T14:25:51.701Z,24.42
2023-05-05T14:28:18.218Z,24.42
2023-05-05T14:30:44.851Z,24.43
2023-05-05T14:33:11.542Z,24.45
2023-05-05T14:35:38.246Z,24.44
2023-05-05T14:38:04.869Z,24.45
2023-05-05T14:40:31.504Z,24.46
2023-05-05T14:42:58.160Z,24.47
2023-05-05T14:45:24.673Z,24.47
2023-05-05T14:47:51.213Z,24.48
2023-05-05T14:50:17.763Z,24.49
2023-05-05T14:52:44.639Z,24.50
2023-05-05T14:55:11.612Z,24.50
2023-05-05T14:57:38.873Z,24.51
2023-05-05T15:00:08.311Z,24.50
2023-05-05T15:02:34.973Z,24.50
2023-05-05T15:05:01.526Z,24.50
2023-05-05T15:07:29.101Z,24.49
2023-05-05T15:09:58.546Z,24.49
2023-05-05T15:12:26.007Z,24.50
2023-05-05T15:14:52.697Z,24.50
2023-05-05T15:17:19.248Z,24.49
2023-05-05T15:19:45.785Z,24.49
2023-05-05T15:22:12.295Z,24.48
2023-05-05T15:24:38.945Z,24.48
2023-05-05T15:27:05.531Z,24.48
2023-05-05T15:29:32.252Z,24.48
2023-05-05T15:31:58.866Z,24.49
2023-05-05T15:34:26.175Z,24.48
2023-05-05T15:36:52.856Z,24.48
2023-05-05T15:39:19.493Z,24.49
2023-05-05T15:41:46.133Z,24.49
2023-05-05T15:44:12.594Z,24.50
2023-05-05T15:46:39.737Z,24.51
2023-05-05T15:49:06.329Z,24.51
2023-05-05T15:51:32.819Z,24.52
2023-05-05T15:54:00.174Z,24.53
2023-05-05T15:56:29.641Z,24.53
2023-05-05T15:58:56.747Z,24.55
2023-05-05T16:01:23.376Z,24.55
2023-05-05T16:03:49.945Z,24.57
2023-05-05T16:06:16.471Z,24.57
2023-05-05T16:08:43.058Z,24.57
2023-05-05T16:11:09.623Z,24.60
2023-05-05T16:13:36.299Z,24.60
2023-05-05T16:16:02.928Z,24.62
2023-05-05T16:18:29.383Z,24.62
2023-05-05T16:20:55.986Z,24.63
2023-05-05T16:23:22.554Z,24.64
2023-05-05T16:25:49.096Z,24.64
2023-05-05T16:28:15.543Z,24.65
2023-05-05T16:30:43.172Z,24.65
2023-05-05T16:33:09.870Z,24.66
2023-05-05T16:35:36.643Z,24.66
2023-05-05T16:38:03.528Z,24.68
2023-05-05T16:40:30.193Z,24.68
2023-05-05T16:42:56.647Z,24.69
2023-05-05T16:45:24.284Z,24.71
2023-05-05T16:47:51.129Z,24.74
2023-05-05T16:50:17.859Z,24.75
2023-05-05T16:52:44.395Z,24.76
2023-05-05T16:55:10.972Z,24.77
2023-05-05T16:57:37.905Z,24.79
2023-05-05T17:00:06.257Z,24.81
2023-05-05T17:02:33.382Z,24.82
2023-05-05T17:04:59.978Z,24.86
2023-05-05T17:07:26.698Z,24.89
2023-05-05T17:09:53.292Z,24.93
2023-05-05T17:12:19.802Z,24.99
2023-05-05T17:14:46.500Z,25.06
2023-05-05T17:17:13.156Z,25.18
2023-05-05T17:19:39.723Z,25.32
2023-05-05T17:22:06.302Z,25.48
2023-05-05T17:24:32.800Z,25.61
2023-05-05T17:26:59.537Z,25.70
2023-05-05T17:29:26.553Z,25.75
2023-05-05T17:31:54.127Z,25.74
2023-05-05T17:34:20.908Z,25.69
2023-05-05T17:36:47.444Z,25.62
2023-05-05T17:39:13.972Z,25.57
2023-05-05T17:41:41.988Z,25.53
2023-05-05T17:44:08.594Z,25.48
2023-05-05T17:46:35.243Z,25.44
2023-05-05T17:49:02.719Z,25.41
2023-05-05T17:51:29.252Z,25.39
2023-05-05T17:53:56.102Z,25.33
2023-05-05T17:56:23.722Z,25.31
2023-05-05T17:58:50.316Z,25.28
2023-05-05T18:01:22.197Z,25.26
2023-05-05T18:03:49.194Z,25.21
2023-05-05T18:06:16.028Z,25.19
2023-05-05T18:08:42.903Z,25.18
2023-05-05T18:11:09.539Z,25.14
2023-05-05T18:13:36.100Z,25.14
2023-05-05T18:16:02.784Z,25.11
2023-05-05T18:18:29.645Z,25.10
2023-05-05T18:20:56.147Z,25.09
2023-05-05T18:23:22.764Z,25.07
2023-05-05T18:25:49.241Z,25.06
2023-05-05T18:28:15.784Z,25.06
2023-05-05T18:30:42.510Z,25.05
2023-05-05T18:33:09.130Z,25.04
2023-05-05T18:35:35.806Z,25.03
2023-05-05T18:38:03.335Z,25.02
2023-05-05T18:40:29.865Z,25.02
2023-05-05T18:42:56.913Z,25.00
2023-05-05T18:45:23.510Z,25.00
2023-05-05T18:47:50.052Z,25.00
2023-05-05T18:50:17.119Z,24.98
2023-05-05T18:52:43.584Z,24.98
2023-05-05T18:55:10.369Z,24.97
2023-05-05T18:57:37.163Z,24.95
2023-05-05T19:00:03.900Z,24.95
2023-05-05T19:02:30.535Z,24.94
2023-05-05T19:04:57.099Z,24.92
2023-05-05T19:07:34.389Z,24.92
2023-05-05T19:10:04.044Z,24.90
2023-05-05T19:12:30.594Z,24.88
2023-05-05T19:14:57.059Z,24.87
2023-05-05T19:17:23.700Z,24.86
2023-05-05T19:19:50.617Z,24.85
2023-05-05T19:22:21.716Z,24.84
2023-05-05T19:24:48.269Z,24.83
2023-05-05T19:27:16.598Z,24.82
2023-05-05T19:29:43.763Z,24.80
2023-05-05T19:32:10.530Z,24.79
2023-05-05T19:34:37.128Z,24.79
2023-05-05T19:37:03.676Z,24.77
2023-05-05T19:39:30.290Z,24.77
2023-05-05T19:41:56.739Z,24.76
2023-05-05T19:44:23.748Z,24.75
2023-05-05T19:46:50.338Z,24.74
2023-05-05T19:49:16.846Z,24.73
2023-05-05T19:51:43.819Z,24.71
2023-05-05T19:54:10.511Z,24.70
2023-05-05T19:56:37.066Z,24.70
2023-05-05T19:59:05.270Z,24.68
2023-05-05T20:01:33.764Z,24.67
2023-05-05T20:04:00.446Z,24.67
2023-05-05T20:06:27.116Z,24.66
2023-05-05T20:08:54.737Z,24.66
2023-05-05T20:11:21.982Z,24.66
2023-05-05T20:13:49.924Z,24.64
2023-05-05T20:16:16.667Z,24.64
2023-05-05T20:18:43.581Z,24.64
2023-05-05T20:21:10.140Z,24.63
2023-05-05T20:23:37.090Z,24.63
2023-05-05T20:26:04.336Z,24.63
2023-05-05T20:28:31.741Z,24.62
2023-05-05T20:30:58.392Z,24.62
2023-05-05T20:33:25.014Z,24.61
2023-05-05T20:35:51.497Z,24.61
2023-05-05T20:38:18.013Z,24.61
2023-05-05T20:40:44.565Z,24.61
2023-05-05T20:43:11.163Z,24.60
2023-05-05T20:45:37.684Z,24.60
2023-05-05T20:48:05.564Z,24.60
2023-05-05T20:50:32.192Z,24.59
2023-05-05T20:52:58.901Z,24.59
2023-05-05T20:55:25.884Z,24.59
2023-05-05T20:57:52.410Z,24.58
2023-05-05T21:00:18.909Z,24.59
2023-05-05T21:02:45.546Z,24.58
2023-05-05T21:05:12.624Z,24.58
2023-05-05T21:07:39.102Z,24.58
2023-05-05T21:10:06.311Z,24.57
2023-05-05T21:12:33.803Z,24.58
2023-05-05T21:15:00.339Z,24.57
2023-05-05T21:17:27.631Z,24.56
2023-05-05T21:19:54.838Z,24.56
2023-05-05T21:22:22.103Z,24.56
2023-05-05T21:24:48.733Z,24.55
2023-05-05T21:27:15.729Z,24.56
2023-05-05T21:29:42.167Z,24.56
2023-05-05T21:32:10.601Z,24.55
2023-05-05T21:34:38.307Z,24.55
2023-05-05T21:37:05.559Z,24.55
2023-05-05T21:39:33.052Z,24.55
2023-05-05T21:42:00.694Z,24.54
2023-05-05T21:44:28.226Z,24.54
2023-05-05T21:46:55.663Z,24.53
2023-05-05T21:49:22.153Z,24.54
2023-05-05T21:51:50.606Z,24.53
2023-05-05T21:54:17.097Z,24.53
2023-05-05T21:56:43.704Z,24.53
2023-05-05T21:59:10.180Z,24.53
2023-05-05T22:01:36.953Z,24.53
2023-05-05T22:04:03.934Z,24.52
2023-05-05T22:06:30.648Z,24.51
2023-05-05T22:08:57.167Z,24.52
2023-05-05T22:11:23.783Z,24.52
2023-05-05T22:13:50.526Z,24.52
2023-05-05T22:16:19.990Z,24.52
2023-05-05T22:18:46.808Z,24.51
2023-05-05T22:21:13.639Z,24.50
2023-05-05T22:23:41.864Z,24.51
2023-05-05T22:26:09.379Z,24.51
2023-05-05T22:28:36.266Z,24.50
2023-05-05T22:31:02.867Z,24.49
2023-05-05T22:33:29.486Z,24.49
2023-05-05T22:35:56.514Z,24.50
2023-05-05T22:38:23.023Z,24.50
2023-05-05T22:40:49.622Z,24.49
2023-05-05T22:43:16.147Z,24.50
2023-05-05T22:45:43.461Z,24.49
2023-05-05T22:48:10.114Z,24.49
2023-05-05T22:50:36.754Z,24.49
2023-05-05T22:53:03.619Z,24.48
2023-05-05T22:55:30.174Z,24.48
2023-05-05T22:57:56.697Z,24.48
2023-05-05T23:00:23.750Z,24.49
2023-05-05T23:02:50.351Z,24.48
2023-05-05T23:05:17.019Z,24.47
2023-05-05T23:07:43.556Z,24.48
2023-05-05T23:10:10.350Z,24.47
2023-05-05T23:12:36.915Z,24.46
2023-05-05T23:15:04.159Z,24.46
2023-05-05T23:17:30.697Z,24.46
2023-05-05T23:19:57.209Z,24.46
2023-05-05T23:22:23.710Z,24.45
2023-05-05T23:24:50.162Z,24.46
2023-05-05T23:27:16.688Z,24.46
2023-05-05T23:29:43.249Z,24.46
2023-05-05T23:32:09.745Z,24.46
2023-05-05T23:34:36.237Z,24.46
2023-05-05T23:37:05.376Z,24.46
2023-05-05T23:39:35.675Z,24.45
2023-05-05T23:42:02.153Z,24.45
2023-05-05T23:44:28.626Z,24.44
2023-05-05T23:46:55.226Z,24.44
2023-05-05T23:49:21.760Z,24.44
2023-05-05T23:51:48.210Z,24.43
2023-05-05T23:54:14.692Z,24.44
2023-05-05T23:56:41.122Z,24.44
2023-05-05T23:59:07.690Z,24.43
